createdAt,value
2017-05-26T00:01:02.806Z,18.18
2017-05-26T00:03:30.357Z,18.17
2017-05-26T00:05:57.941Z,18.26
2017-05-26T00:08:25.515Z,18.20
2017-05-26T00:10:53.080Z,18.17
2017-05-26T00:13:20.615Z,18.17
2017-05-26T00:15:48.156Z,18.41
2017-05-26T00:18:15.714Z,18.43
2017-05-26T00:20:43.237Z,18.60
2017-05-26T00:23:10.815Z,18.54
2017-05-26T00:25:38.336Z,18.60
2017-05-26T00:28:05.868Z,18.93
2017-05-26T00:30:33.414Z,18.80
2017-05-26T00:33:00.936Z,18.28
2017-05-26T00:35:28.544Z,17.92
2017-05-26T00:37:56.139Z,17.76
2017-05-26T00:40:23.724Z,17.58
2017-05-26T00:42:51.284Z,17.62
2017-05-26T00:45:18.809Z,17.90
2017-05-26T00:47:46.379Z,17.78
2017-05-26T00:50:13.921Z,17.61
2017-05-26T00:52:41.453Z,17.48
2017-05-26T00:55:09.036Z,17.37
2017-05-26T00:57:36.565Z,17.37
2017-05-26T01:00:04.152Z,17.51
2017-05-26T01:02:31.673Z,17.56
2017-05-26T01:04:59.253Z,17.41
2017-05-26T01:07:26.780Z,17.30
2017-05-26T01:09:54.309Z,17.36
2017-05-26T01:12:21.892Z,17.38
2017-05-26T01:14:49.410Z,17.31
2017-05-26T01:17:16.965Z,17.28
2017-05-26T01:19:44.503Z,17.29
2017-05-26T01:22:12.204Z,17.37
2017-05-26T01:24:39.824Z,17.45
2017-05-26T01:27:07.404Z,17.53
2017-05-26T01:29:35.039Z,17.60
2017-05-26T01:32:02.920Z,17.65
2017-05-26T01:34:30.879Z,17.40
2017-05-26T01:36:58.412Z,17.67
2017-05-26T01:39:26.046Z,17.88
2017-05-26T01:41:53.611Z,18.09
2017-05-26T01:44:21.152Z,17.93
2017-05-26T01:46:48.801Z,17.76
2017-05-26T01:49:16.367Z,17.82
2017-05-26T01:51:43.913Z,17.68
2017-05-26T01:54:11.471Z,17.35
2017-05-26T01:56:39.014Z,17.10
2017-05-26T01:59:06.608Z,17.26
2017-05-26T02:01:34.157Z,17.33
2017-05-26T02:04:01.691Z,17.17
2017-05-26T02:06:29.295Z,17.37
2017-05-26T02:08:56.836Z,17.22
2017-05-26T02:11:24.428Z,17.05
2017-05-26T02:13:51.955Z,17.05
2017-05-26T02:16:19.500Z,17.23
2017-05-26T02:18:47.053Z,17.47
2017-05-26T02:21:14.589Z,17.65
2017-05-26T02:23:42.175Z,17.18
2017-05-26T02:26:09.696Z,16.91
2017-05-26T02:28:37.248Z,16.93
2017-05-26T02:31:04.884Z,16.63
2017-05-26T02:33:32.425Z,16.55
2017-05-26T02:36:00.208Z,16.55
2017-05-26T02:38:27.792Z,16.46
2017-05-26T02:40:55.333Z,16.32
2017-05-26T02:43:22.916Z,16.22
2017-05-26T02:45:50.465Z,16.23
2017-05-26T02:48:18.024Z,16.22
2017-05-26T02:50:45.592Z,16.09
2017-05-26T02:53:13.121Z,16.10
2017-05-26T02:55:40.717Z,16.09
2017-05-26T02:58:08.271Z,16.11
2017-05-26T03:00:35.852Z,16.10
2017-05-26T03:03:03.438Z,16.16
2017-05-26T03:05:31.033Z,16.12
2017-05-26T03:07:58.631Z,16.13
2017-05-26T03:10:26.390Z,16.20
2017-05-26T03:12:53.972Z,16.19
2017-05-26T03:15:21.511Z,16.36
2017-05-26T03:17:49.089Z,16.58
2017-05-26T03:20:16.627Z,16.60
2017-05-26T03:22:44.369Z,16.82
2017-05-26T03:25:11.897Z,16.86
2017-05-26T03:27:39.428Z,16.92
2017-05-26T03:30:07.065Z,16.90
2017-05-26T03:32:34.608Z,16.96
2017-05-26T03:35:02.195Z,16.84
2017-05-26T03:37:29.728Z,16.43
2017-05-26T03:39:57.260Z,16.07
2017-05-26T03:42:24.833Z,16.10
2017-05-26T03:44:52.395Z,16.21
2017-05-26T03:47:20.242Z,15.93
2017-05-26T03:49:47.793Z,15.95
2017-05-26T03:52:15.345Z,15.95
2017-05-26T03:54:42.911Z,15.94
2017-05-26T03:57:10.459Z,16.00
2017-05-26T03:59:38.094Z,15.86
2017-05-26T04:02:05.640Z,15.72
2017-05-26T04:04:33.318Z,15.85
2017-05-26T04:07:00.853Z,15.85
2017-05-26T04:09:28.420Z,15.73
2017-05-26T04:11:55.984Z,15.74
2017-05-26T04:14:23.526Z,15.71
2017-05-26T04:16:51.200Z,15.80
2017-05-26T04:19:18.728Z,15.98
2017-05-26T04:21:46.276Z,16.26
2017-05-26T04:24:13.845Z,16.12
2017-05-26T04:26:41.439Z,16.04
2017-05-26T04:29:09.084Z,16.01
2017-05-26T04:31:36.660Z,16.20
2017-05-26T04:34:04.219Z,16.37
2017-05-26T04:36:31.764Z,16.16
2017-05-26T04:38:59.351Z,16.23
2017-05-26T04:41:26.881Z,16.11
2017-05-26T04:43:54.420Z,16.20
2017-05-26T04:46:22.029Z,16.47
2017-05-26T04:48:49.563Z,16.71
2017-05-26T04:51:17.144Z,16.74
2017-05-26T04:53:44.724Z,17.03
2017-05-26T04:56:12.376Z,17.09
2017-05-26T04:58:39.934Z,17.12
2017-05-26T05:01:07.473Z,17.20
2017-05-26T05:03:35.068Z,17.23
2017-05-26T05:06:02.614Z,17.18
2017-05-26T05:08:30.213Z,17.25
2017-05-26T05:10:57.807Z,17.24
2017-05-26T05:13:25.411Z,17.10
2017-05-26T05:15:52.983Z,16.93
2017-05-26T05:18:20.633Z,17.02
2017-05-26T05:20:48.314Z,17.03
2017-05-26T05:23:15.849Z,17.00
2017-05-26T05:25:43.405Z,17.26
2017-05-26T05:28:11.025Z,17.48
2017-05-26T05:30:38.559Z,17.50
2017-05-26T05:33:06.123Z,17.57
2017-05-26T05:35:33.694Z,17.63
2017-05-26T05:38:01.246Z,17.59
2017-05-26T05:40:28.784Z,17.61
2017-05-26T05:42:56.380Z,17.67
2017-05-26T05:45:23.940Z,17.77
2017-05-26T05:47:51.470Z,17.76
2017-05-26T05:50:19.055Z,17.85
2017-05-26T05:52:46.604Z,17.91
2017-05-26T05:55:14.144Z,17.92
2017-05-26T05:57:41.672Z,17.81
2017-05-26T06:00:09.221Z,17.92
2017-05-26T06:02:36.763Z,17.96
2017-05-26T06:05:04.315Z,17.92
2017-05-26T06:07:31.862Z,18.04
2017-05-26T06:09:59.452Z,18.20
2017-05-26T06:12:26.972Z,18.27
2017-05-26T06:14:54.487Z,18.25
2017-05-26T06:17:22.035Z,18.31
2017-05-26T06:19:49.575Z,18.36
2017-05-26T06:22:17.144Z,18.47
2017-05-26T06:24:44.699Z,18.57
2017-05-26T06:27:12.236Z,18.67
2017-05-26T06:29:39.802Z,18.74
2017-05-26T06:32:07.433Z,18.81
2017-05-26T06:34:34.952Z,18.84
2017-05-26T06:37:02.492Z,18.92
2017-05-26T06:39:30.032Z,19.03
2017-05-26T06:41:57.580Z,19.04
2017-05-26T06:44:25.132Z,19.10
2017-05-26T06:46:52.700Z,19.14
2017-05-26T06:49:20.231Z,19.16
2017-05-26T06:51:47.780Z,19.20
2017-05-26T06:54:15.308Z,19.20
2017-05-26T06:56:42.876Z,19.28
2017-05-26T06:59:10.429Z,19.37
2017-05-26T07:01:37.983Z,19.41
2017-05-26T07:04:05.532Z,19.44
2017-05-26T07:06:33.059Z,19.54
2017-05-26T07:09:00.656Z,19.52
2017-05-26T07:11:28.201Z,19.52
2017-05-26T07:13:55.752Z,19.55
2017-05-26T07:16:23.311Z,19.58
2017-05-26T07:18:50.849Z,19.58
2017-05-26T07:21:18.422Z,19.63
2017-05-26T07:23:45.946Z,19.70
2017-05-26T07:26:13.515Z,19.74
2017-05-26T07:28:41.061Z,19.77
2017-05-26T07:31:08.596Z,19.81
2017-05-26T07:33:36.252Z,19.89
2017-05-26T07:36:03.784Z,19.93
2017-05-26T07:38:31.342Z,19.96
2017-05-26T07:40:58.892Z,20.00
2017-05-26T07:43:26.700Z,19.95
2017-05-26T07:45:54.228Z,20.02
2017-05-26T07:48:21.769Z,20.07
2017-05-26T07:50:49.337Z,20.05
2017-05-26T07:53:16.873Z,20.06
2017-05-26T07:55:44.432Z,20.15
2017-05-26T07:58:11.969Z,20.26
2017-05-26T08:00:39.561Z,20.34
2017-05-26T08:03:07.095Z,20.40
2017-05-26T08:05:34.624Z,20.46
2017-05-26T08:08:02.190Z,20.48
2017-05-26T08:10:29.732Z,20.53
2017-05-26T08:12:57.310Z,20.62
2017-05-26T08:15:24.834Z,20.68
2017-05-26T08:17:52.449Z,20.80
2017-05-26T08:20:20.025Z,20.85
2017-05-26T08:22:47.556Z,20.86
2017-05-26T08:25:15.128Z,20.87
2017-05-26T08:27:42.660Z,20.83
2017-05-26T08:30:10.249Z,20.90
2017-05-26T08:32:37.793Z,21.00
2017-05-26T08:35:05.372Z,21.07
2017-05-26T08:37:32.956Z,21.14
2017-05-26T08:40:00.483Z,21.20
2017-05-26T08:42:28.041Z,21.25
2017-05-26T08:44:55.564Z,21.34
2017-05-26T08:47:23.114Z,21.41
2017-05-26T08:49:50.666Z,21.45
2017-05-26T08:52:18.241Z,21.47
2017-05-26T08:54:45.775Z,21.48
2017-05-26T08:57:13.307Z,21.52
2017-05-26T08:59:40.875Z,21.59
2017-05-26T09:02:08.897Z,21.60
2017-05-26T09:04:36.595Z,21.59
2017-05-26T09:07:04.156Z,21.65
2017-05-26T09:09:31.708Z,21.79
2017-05-26T09:11:59.352Z,21.80
2017-05-26T09:14:26.915Z,21.83
2017-05-26T09:16:54.613Z,21.92
2017-05-26T09:19:24.284Z,21.98
2017-05-26T09:21:51.932Z,21.94
2017-05-26T09:24:19.510Z,22.08
2017-05-26T09:26:47.060Z,22.21
2017-05-26T09:29:14.590Z,22.43
2017-05-26T09:31:42.212Z,22.44
2017-05-26T09:34:09.739Z,22.40
2017-05-26T09:36:37.296Z,22.44
2017-05-26T09:39:04.803Z,22.47
2017-05-26T09:41:32.388Z,22.55
2017-05-26T09:43:59.915Z,22.55
2017-05-26T09:46:27.485Z,22.60
2017-05-26T09:48:55.020Z,22.55
2017-05-26T09:51:22.695Z,22.63
2017-05-26T09:53:50.683Z,22.73
2017-05-26T09:56:18.220Z,22.94
2017-05-26T09:58:45.807Z,23.25
2017-05-26T10:01:13.368Z,23.39
2017-05-26T10:03:40.905Z,23.48
2017-05-26T10:06:08.489Z,23.60
2017-05-26T10:08:36.045Z,23.66
2017-05-26T10:11:03.618Z,23.74
2017-05-26T10:13:31.193Z,23.82
2017-05-26T10:15:58.781Z,24.15
2017-05-26T10:18:26.364Z,24.18
2017-05-26T10:20:53.947Z,24.30
2017-05-26T10:23:21.525Z,24.43
2017-05-26T10:25:49.053Z,24.51
2017-05-26T10:28:16.648Z,24.62
2017-05-26T10:30:44.189Z,24.76
2017-05-26T10:33:11.771Z,25.00
2017-05-26T10:35:39.736Z,25.21
2017-05-26T10:38:07.262Z,24.65
2017-05-26T10:40:34.787Z,24.79
2017-05-26T10:43:02.345Z,25.13
2017-05-26T10:45:29.865Z,25.45
2017-05-26T10:47:57.453Z,25.64
2017-05-26T10:50:25.024Z,25.78
2017-05-26T10:52:52.620Z,26.05
2017-05-26T10:55:20.154Z,26.23
2017-05-26T10:57:47.696Z,26.28
2017-05-26T11:00:15.270Z,26.46
2017-05-26T11:02:42.796Z,26.48
2017-05-26T11:05:10.325Z,26.51
2017-05-26T11:07:37.896Z,26.42
2017-05-26T11:10:05.436Z,26.42
2017-05-26T11:12:33.018Z,26.34
2017-05-26T11:15:00.539Z,26.32
2017-05-26T11:17:28.105Z,26.41
2017-05-26T11:19:55.673Z,26.56
2017-05-26T11:22:23.229Z,26.65
2017-05-26T11:24:50.784Z,26.81
2017-05-26T11:27:18.316Z,26.95
2017-05-26T11:29:45.948Z,27.00
2017-05-26T11:32:13.495Z,27.35
2017-05-26T11:34:41.042Z,27.53
2017-05-26T11:37:08.651Z,27.65
2017-05-26T11:39:36.189Z,27.45
2017-05-26T11:42:03.738Z,27.67
2017-05-26T11:44:31.283Z,27.61
2017-05-26T11:46:58.808Z,27.42
2017-05-26T11:49:26.636Z,27.41
2017-05-26T11:51:54.198Z,27.47
2017-05-26T11:54:21.740Z,27.59
2017-05-26T11:56:49.302Z,27.63
2017-05-26T11:59:16.886Z,27.61
2017-05-26T12:01:44.477Z,27.65
2017-05-26T12:04:12.015Z,27.41
2017-05-26T12:06:39.611Z,27.39
2017-05-26T12:09:07.173Z,27.51
2017-05-26T12:11:34.707Z,27.51
2017-05-26T12:14:02.263Z,27.50
2017-05-26T12:16:29.780Z,27.52
2017-05-26T12:18:57.681Z,27.66
2017-05-26T12:21:25.214Z,27.71
2017-05-26T12:23:52.734Z,27.76
2017-05-26T12:26:20.287Z,27.75
2017-05-26T12:28:47.847Z,27.84
2017-05-26T12:31:15.414Z,27.97
2017-05-26T12:33:43.099Z,28.10
2017-05-26T12:36:10.604Z,28.11
2017-05-26T12:38:38.169Z,27.72
2017-05-26T12:41:05.727Z,27.97
2017-05-26T12:43:33.306Z,28.13
2017-05-26T12:46:00.852Z,28.33
2017-05-26T12:48:28.390Z,28.43
2017-05-26T12:50:55.962Z,28.58
2017-05-26T12:53:23.512Z,28.59
2017-05-26T12:55:51.116Z,28.69
2017-05-26T12:58:18.641Z,28.78
2017-05-26T13:00:46.221Z,28.86
2017-05-26T13:03:13.815Z,28.95
2017-05-26T13:05:41.367Z,29.02
2017-05-26T13:08:08.947Z,29.10
2017-05-26T13:10:36.551Z,29.10
2017-05-26T13:13:04.123Z,29.20
2017-05-26T13:15:31.678Z,29.37
2017-05-26T13:17:59.307Z,29.35
2017-05-26T13:20:26.904Z,29.28
2017-05-26T13:22:54.471Z,29.45
2017-05-26T13:25:22.106Z,29.54
2017-05-26T13:27:49.676Z,29.61
2017-05-26T13:30:17.342Z,29.79
2017-05-26T13:32:44.871Z,29.69
2017-05-26T13:35:12.415Z,29.85
2017-05-26T13:37:40.097Z,29.95
2017-05-26T13:40:07.619Z,30.25
2017-05-26T13:42:35.140Z,30.37
2017-05-26T13:45:02.700Z,30.47
2017-05-26T13:47:30.206Z,30.64
2017-05-26T13:49:58.102Z,30.77
2017-05-26T13:52:25.653Z,30.76
2017-05-26T13:54:53.217Z,30.87
2017-05-26T13:57:20.769Z,31.14
2017-05-26T13:59:48.316Z,31.24
2017-05-26T14:02:15.907Z,31.48
2017-05-26T14:04:43.451Z,31.72
2017-05-26T14:07:10.980Z,32.14
2017-05-26T14:09:38.662Z,32.07
2017-05-26T14:12:06.293Z,32.32
2017-05-26T14:14:33.906Z,32.66
2017-05-26T14:17:01.435Z,33.01
2017-05-26T14:19:29.011Z,33.46
2017-05-26T14:21:56.669Z,33.70
2017-05-26T14:24:24.215Z,33.79
2017-05-26T14:26:51.840Z,34.00
2017-05-26T14:29:19.356Z,34.33
2017-05-26T14:31:46.928Z,34.37
2017-05-26T14:34:14.449Z,33.94
2017-05-26T14:36:42.203Z,34.09
2017-05-26T14:39:09.817Z,33.69
2017-05-26T14:41:37.391Z,33.57
2017-05-26T14:44:04.975Z,33.46
2017-05-26T14:46:32.596Z,33.55
2017-05-26T14:49:00.231Z,33.38
2017-05-26T14:51:27.766Z,33.36
2017-05-26T14:53:55.385Z,33.60
2017-05-26T14:56:22.956Z,33.73
2017-05-26T14:58:50.497Z,33.39
2017-05-26T15:01:18.056Z,32.63
2017-05-26T15:03:45.593Z,32.88
2017-05-26T15:06:13.163Z,32.62
2017-05-26T15:08:40.689Z,32.40
2017-05-26T15:11:08.283Z,32.78
2017-05-26T15:13:35.851Z,32.36
2017-05-26T15:16:03.384Z,32.58
2017-05-26T15:18:30.985Z,33.01
2017-05-26T15:20:58.513Z,33.52
2017-05-26T15:23:26.064Z,33.84
2017-05-26T15:25:53.617Z,34.04
2017-05-26T15:28:21.149Z,34.07
2017-05-26T15:30:48.746Z,33.70
2017-05-26T15:33:16.280Z,34.00
2017-05-26T15:35:43.821Z,33.64
2017-05-26T15:38:11.376Z,33.51
2017-05-26T15:40:38.895Z,33.76
2017-05-26T15:43:06.451Z,33.94
2017-05-26T15:45:33.980Z,34.29
2017-05-26T15:48:01.553Z,34.49
2017-05-26T15:50:29.102Z,34.14
2017-05-26T15:52:56.634Z,33.77
2017-05-26T15:55:24.212Z,33.65
2017-05-26T15:57:51.737Z,33.99
2017-05-26T16:00:19.305Z,33.65
2017-05-26T16:02:46.832Z,33.56
2017-05-26T16:05:14.365Z,33.92
2017-05-26T16:07:41.923Z,34.10
2017-05-26T16:10:09.443Z,34.03
2017-05-26T16:12:37.006Z,34.07
2017-05-26T16:15:04.540Z,34.42
2017-05-26T16:17:32.074Z,33.91
2017-05-26T16:19:59.633Z,33.97
2017-05-26T16:22:27.191Z,33.57
2017-05-26T16:24:54.776Z,33.54
2017-05-26T16:27:22.316Z,33.52
2017-05-26T16:29:49.844Z,33.20
2017-05-26T16:32:17.412Z,33.18
2017-05-26T16:34:44.931Z,33.30
2017-05-26T16:37:12.506Z,33.05
2017-05-26T16:39:40.059Z,33.66
2017-05-26T16:42:07.591Z,33.67
2017-05-26T16:44:35.144Z,32.85
2017-05-26T16:47:02.684Z,32.82
2017-05-26T16:49:30.267Z,32.97
2017-05-26T16:51:57.825Z,33.04
2017-05-26T16:54:25.359Z,32.83
2017-05-26T16:56:52.918Z,32.76
2017-05-26T16:59:20.456Z,32.66
2017-05-26T17:01:48.083Z,32.69
2017-05-26T17:04:15.607Z,32.89
2017-05-26T17:06:43.188Z,32.58
2017-05-26T17:09:10.718Z,32.64
2017-05-26T17:11:38.327Z,32.66
2017-05-26T17:14:05.902Z,32.67
2017-05-26T17:16:33.457Z,32.45
2017-05-26T17:19:01.371Z,31.66
2017-05-26T17:21:28.899Z,31.71
2017-05-26T17:23:56.444Z,31.46
2017-05-26T17:26:24.008Z,31.55
2017-05-26T17:28:51.569Z,31.46
2017-05-26T17:31:19.142Z,31.50
2017-05-26T17:33:46.673Z,31.40
2017-05-26T17:36:14.195Z,31.18
2017-05-26T17:38:42.067Z,31.66
2017-05-26T17:41:09.636Z,31.67
2017-05-26T17:43:39.225Z,32.16
2017-05-26T17:46:06.837Z,32.05
2017-05-26T17:48:36.593Z,32.17
2017-05-26T17:51:04.767Z,31.86
2017-05-26T17:53:33.699Z,31.35
2017-05-26T17:56:01.478Z,31.65
2017-05-26T17:58:31.097Z,31.29
2017-05-26T18:00:58.913Z,31.14
2017-05-26T18:03:26.501Z,31.13
2017-05-26T18:05:54.046Z,31.03
2017-05-26T18:08:21.632Z,30.74
2017-05-26T18:10:49.296Z,30.73
2017-05-26T18:13:16.836Z,30.97
2017-05-26T18:15:44.428Z,31.07
2017-05-26T18:18:11.972Z,31.21
2017-05-26T18:20:39.496Z,30.94
2017-05-26T18:23:07.056Z,30.79
2017-05-26T18:25:34.588Z,30.85
2017-05-26T18:28:02.165Z,30.77
2017-05-26T18:30:29.697Z,30.61
2017-05-26T18:32:57.242Z,30.71
2017-05-26T18:35:24.821Z,30.55
2017-05-26T18:37:52.360Z,30.47
2017-05-26T18:40:19.934Z,30.59
2017-05-26T18:42:47.459Z,30.38
2017-05-26T18:45:15.032Z,30.56
2017-05-26T18:47:42.553Z,30.63
2017-05-26T18:50:10.127Z,30.15
2017-05-26T18:52:37.686Z,29.43
2017-05-26T18:55:05.212Z,29.06
2017-05-26T18:57:32.799Z,29.05
2017-05-26T19:00:00.350Z,28.80
2017-05-26T19:02:27.869Z,28.75
2017-05-26T19:04:55.456Z,28.91
2017-05-26T19:07:23.030Z,28.59
2017-05-26T19:09:50.631Z,28.35
2017-05-26T19:12:18.251Z,28.14
2017-05-26T19:14:45.853Z,28.14
2017-05-26T19:17:13.415Z,27.92
2017-05-26T19:19:41.055Z,27.87
2017-05-26T19:22:08.661Z,27.76
2017-05-26T19:24:36.221Z,27.65
2017-05-26T19:27:03.820Z,27.70
2017-05-26T19:29:31.389Z,28.06
2017-05-26T19:31:58.916Z,27.82
2017-05-26T19:34:26.502Z,27.65
2017-05-26T19:36:54.038Z,27.61
2017-05-26T19:39:21.600Z,27.63
2017-05-26T19:41:49.150Z,27.83
2017-05-26T19:44:16.736Z,27.86
2017-05-26T19:46:44.276Z,27.69
2017-05-26T19:49:11.805Z,27.96
2017-05-26T19:51:39.458Z,27.65
2017-05-26T19:54:07.017Z,27.48
2017-05-26T19:56:34.600Z,27.44
2017-05-26T19:59:02.212Z,27.45
2017-05-26T20:01:29.839Z,27.38
2017-05-26T20:03:57.427Z,27.15
2017-05-26T20:06:24.979Z,27.19
2017-05-26T20:08:52.551Z,27.06
2017-05-26T20:11:20.185Z,27.02
2017-05-26T20:13:47.734Z,26.86
2017-05-26T20:16:15.343Z,26.55
2017-05-26T20:18:42.910Z,26.57
2017-05-26T20:21:10.436Z,26.38
2017-05-26T20:23:38.140Z,26.35
2017-05-26T20:26:05.725Z,26.18
2017-05-26T20:28:34.555Z,26.20
2017-05-26T20:31:02.128Z,26.23
2017-05-26T20:33:29.693Z,26.15
2017-05-26T20:35:57.263Z,26.12
2017-05-26T20:38:24.804Z,25.93
2017-05-26T20:40:52.377Z,25.99
2017-05-26T20:43:19.934Z,25.80
2017-05-26T20:45:47.472Z,25.71
2017-05-26T20:48:15.055Z,25.62
2017-05-26T20:50:42.604Z,25.47
2017-05-26T20:53:10.183Z,25.33
2017-05-26T20:55:37.779Z,25.26
2017-05-26T20:58:05.340Z,25.15
2017-05-26T21:00:32.944Z,25.12
2017-05-26T21:03:00.536Z,24.98
2017-05-26T21:05:29.541Z,24.91
2017-05-26T21:07:57.140Z,24.84
2017-05-26T21:10:25.612Z,24.70
2017-05-26T21:12:53.194Z,24.70
2017-05-26T21:15:20.743Z,24.65
2017-05-26T21:17:48.345Z,24.69
2017-05-26T21:20:15.904Z,24.53
2017-05-26T21:22:43.463Z,24.44
2017-05-26T21:25:11.021Z,24.29
2017-05-26T21:27:38.979Z,24.28
2017-05-26T21:30:06.609Z,24.38
2017-05-26T21:32:34.175Z,24.28
2017-05-26T21:35:01.740Z,24.22
2017-05-26T21:37:29.267Z,23.99
2017-05-26T21:39:56.875Z,24.03
2017-05-26T21:42:24.416Z,23.92
2017-05-26T21:44:52.038Z,23.90
2017-05-26T21:47:19.572Z,23.93
2017-05-26T21:49:47.153Z,24.01
2017-05-26T21:52:14.776Z,24.00
2017-05-26T21:54:42.305Z,23.84
2017-05-26T21:57:09.904Z,23.73
2017-05-26T21:59:37.426Z,23.58
2017-05-26T22:02:05.275Z,23.45
2017-05-26T22:04:32.870Z,23.34
2017-05-26T22:07:00.452Z,23.32
2017-05-26T22:09:28.007Z,23.24
2017-05-26T22:11:55.543Z,23.20
2017-05-26T22:14:23.099Z,23.20
2017-05-26T22:16:50.674Z,23.15
2017-05-26T22:19:18.484Z,23.18
2017-05-26T22:21:49.692Z,23.06
2017-05-26T22:24:17.257Z,23.06
2017-05-26T22:26:45.090Z,23.06
2017-05-26T22:29:12.617Z,22.97
2017-05-26T22:31:43.507Z,22.90
2017-05-26T22:34:11.131Z,22.78
2017-05-26T22:36:38.685Z,22.88
2017-05-26T22:39:06.256Z,22.71
2017-05-26T22:41:33.799Z,22.71
2017-05-26T22:44:01.368Z,22.72
2017-05-26T22:46:28.893Z,22.62
2017-05-26T22:48:56.537Z,22.58
2017-05-26T22:51:24.189Z,22.48
2017-05-26T22:53:51.787Z,22.28
2017-05-26T22:56:19.325Z,22.33
2017-05-26T22:58:46.885Z,22.27
2017-05-26T23:01:14.502Z,22.23
2017-05-26T23:03:42.036Z,22.32
2017-05-26T23:06:09.772Z,22.26
2017-05-26T23:08:37.312Z,22.23
2017-05-26T23:11:05.059Z,22.27
2017-05-26T23:13:32.579Z,22.29
2017-05-26T23:16:00.116Z,22.13
2017-05-26T23:18:27.664Z,22.10
2017-05-26T23:20:55.203Z,21.95
2017-05-26T23:23:22.760Z,21.86
2017-05-26T23:25:50.296Z,21.91
2017-05-26T23:28:17.970Z,22.10
2017-05-26T23:30:45.568Z,22.29
2017-05-26T23:33:13.141Z,22.20
2017-05-26T23:35:40.715Z,22.26
2017-05-26T23:38:08.315Z,22.07
2017-05-26T23:40:35.892Z,22.16
2017-05-26T23:43:03.484Z,22.03
2017-05-26T23:45:31.083Z,22.09
2017-05-26T23:47:58.673Z,22.05
2017-05-26T23:50:26.569Z,22.06
2017-05-26T23:52:54.108Z,22.09
2017-05-26T23:55:21.635Z,22.06
2017-05-26T23:57:49.211Z,22.40
